createdAt,value
2023-02-21T00:01:40.255Z,17.34
2023-02-21T00:04:07.070Z,17.33
2023-02-21T00:06:33.445Z,17.30
2023-02-21T00:08:59.883Z,17.27
2023-02-21T00:11:26.287Z,17.26
2023-02-21T00:13:52.801Z,17.24
2023-02-21T00:16:19.133Z,17.10
2023-02-21T00:18:45.712Z,17.17
2023-02-21T00:21:12.489Z,17.08
2023-02-21T00:23:39.175Z,17.17
2023-02-21T00:26:05.484Z,17.09
2023-02-21T00:28:31.859Z,17.23
2023-02-21T00:30:58.265Z,17.17
2023-02-21T00:33:24.876Z,17.17
2023-02-21T00:35:51.288Z,17.16
2023-02-21T00:38:17.696Z,17.01
2023-02-21T00:40:44.010Z,17.10
2023-02-21T00:43:10.385Z,17.15
2023-02-21T00:45:37.040Z,17.12
2023-02-21T00:48:03.799Z,17.12
2023-02-21T00:50:30.145Z,17.11
2023-02-21T00:52:56.538Z,17.09
2023-02-21T00:55:22.946Z,17.02
2023-02-21T00:57:49.671Z,17.04
2023-02-21T01:00:16.074Z,17.11
2023-02-21T01:02:42.580Z,17.09
2023-02-21T01:05:09.290Z,17.02
2023-02-21T01:07:35.938Z,17.04
2023-02-21T01:10:02.396Z,17.02
2023-02-21T01:12:28.755Z,17.02
2023-02-21T01:14:55.094Z,17.01
2023-02-21T01:17:21.740Z,16.92
2023-02-21T01:19:48.101Z,16.99
2023-02-21T01:22:14.928Z,16.94
2023-02-21T01:24:41.377Z,16.95
2023-02-21T01:27:08.006Z,16.93
2023-02-21T01:29:34.331Z,16.94
2023-02-21T01:32:01.352Z,16.92
2023-02-21T01:34:27.892Z,16.91
2023-02-21T01:36:54.430Z,16.92
2023-02-21T01:39:21.066Z,16.91
2023-02-21T01:41:47.406Z,16.94
2023-02-21T01:44:13.721Z,16.92
2023-02-21T01:46:40.265Z,16.88
2023-02-21T01:49:06.677Z,16.86
2023-02-21T01:51:32.973Z,16.87
2023-02-21T01:53:59.259Z,16.86
2023-02-21T01:56:25.658Z,16.85
2023-02-21T01:58:52.199Z,16.88
2023-02-21T02:01:19.206Z,16.83
2023-02-21T02:03:46.193Z,16.83
2023-02-21T02:06:12.765Z,16.82
2023-02-21T02:08:39.360Z,16.76
2023-02-21T02:11:06.098Z,16.80
2023-02-21T02:13:32.671Z,16.81
2023-02-21T02:15:59.026Z,16.80
2023-02-21T02:18:25.713Z,16.78
2023-02-21T02:20:52.119Z,16.78
2023-02-21T02:23:18.445Z,16.77
2023-02-21T02:25:44.780Z,16.78
2023-02-21T02:28:11.125Z,16.77
2023-02-21T02:30:37.638Z,16.75
2023-02-21T02:33:04.225Z,16.73
2023-02-21T02:35:30.682Z,16.74
2023-02-21T02:37:57.071Z,16.76
2023-02-21T02:40:23.703Z,16.72
2023-02-21T02:42:50.117Z,16.71
2023-02-21T02:45:16.786Z,16.60
2023-02-21T02:47:43.442Z,16.72
2023-02-21T02:50:09.793Z,16.72
2023-02-21T02:52:36.169Z,16.67
2023-02-21T02:55:02.461Z,16.63
2023-02-21T02:57:28.810Z,16.70
2023-02-21T02:59:55.064Z,16.63
2023-02-21T03:02:21.342Z,16.75
2023-02-21T03:04:48.052Z,16.71
2023-02-21T03:07:14.486Z,16.69
2023-02-21T03:09:40.791Z,16.66
2023-02-21T03:12:07.538Z,16.66
2023-02-21T03:14:33.904Z,16.67
2023-02-21T03:17:00.396Z,16.63
2023-02-21T03:19:26.772Z,16.55
2023-02-21T03:21:53.350Z,16.65
2023-02-21T03:24:19.673Z,16.62
2023-02-21T03:26:46.032Z,16.63
2023-02-21T03:29:12.418Z,16.47
2023-02-21T03:31:38.950Z,16.49
2023-02-21T03:34:05.340Z,16.46
2023-02-21T03:36:31.701Z,16.48
2023-02-21T03:38:58.093Z,16.57
2023-02-21T03:41:25.233Z,16.57
2023-02-21T03:43:51.702Z,16.64
2023-02-21T03:46:18.097Z,16.60
2023-02-21T03:48:44.464Z,16.53
2023-02-21T03:51:10.837Z,16.62
2023-02-21T03:53:37.146Z,16.59
2023-02-21T03:56:03.566Z,16.58
2023-02-21T03:58:30.181Z,16.58
2023-02-21T04:00:57.211Z,16.55
2023-02-21T04:03:23.550Z,16.54
2023-02-21T04:05:50.034Z,16.36
2023-02-21T04:08:16.416Z,16.35
2023-02-21T04:10:51.715Z,16.38
2023-02-21T04:13:19.195Z,16.41
2023-02-21T04:15:45.565Z,16.51
2023-02-21T04:18:11.946Z,16.50
2023-02-21T04:20:38.622Z,16.35
2023-02-21T04:23:05.074Z,16.36
2023-02-21T04:25:31.389Z,16.45
2023-02-21T04:27:57.906Z,16.40
2023-02-21T04:30:24.307Z,16.39
2023-02-21T04:32:50.904Z,16.39
2023-02-21T04:35:17.233Z,16.30
2023-02-21T04:37:43.740Z,16.33
2023-02-21T04:40:10.175Z,16.39
2023-02-21T04:42:36.714Z,16.38
2023-02-21T04:45:03.401Z,16.38
2023-02-21T04:47:29.764Z,16.42
2023-02-21T04:49:56.094Z,16.36
2023-02-21T04:52:22.536Z,16.32
2023-02-21T04:54:49.159Z,16.33
2023-02-21T04:57:15.598Z,16.38
2023-02-21T04:59:41.950Z,16.34
2023-02-21T05:02:08.347Z,16.41
2023-02-21T05:04:34.852Z,16.47
2023-02-21T05:07:01.301Z,16.27
2023-02-21T05:09:27.721Z,16.43
2023-02-21T05:11:54.313Z,16.42
2023-02-21T05:14:20.841Z,16.39
2023-02-21T05:16:47.247Z,16.38
2023-02-21T05:19:14.045Z,16.36
2023-02-21T05:21:40.374Z,16.34
2023-02-21T05:24:06.734Z,16.34
2023-02-21T05:26:33.381Z,16.25
2023-02-21T05:28:59.906Z,16.34
2023-02-21T05:31:26.453Z,16.36
2023-02-21T05:33:53.018Z,16.35
2023-02-21T05:36:19.417Z,16.33
2023-02-21T05:38:45.836Z,16.29
2023-02-21T05:41:12.163Z,16.26
2023-02-21T05:43:38.594Z,16.31
2023-02-21T05:46:05.295Z,16.32
2023-02-21T05:48:31.992Z,16.29
2023-02-21T05:50:58.427Z,16.27
2023-02-21T05:53:24.876Z,16.27
2023-02-21T05:55:51.228Z,16.25
2023-02-21T05:58:17.587Z,16.26
2023-02-21T06:00:43.965Z,16.28
2023-02-21T06:03:10.335Z,16.27
2023-02-21T06:05:36.662Z,16.26
2023-02-21T06:08:03.011Z,16.25
2023-02-21T06:10:29.354Z,16.24
2023-02-21T06:12:55.739Z,16.22
2023-02-21T06:15:22.079Z,16.24
2023-02-21T06:17:48.455Z,16.22
2023-02-21T06:20:14.852Z,16.22
2023-02-21T06:22:41.242Z,16.22
2023-02-21T06:25:07.581Z,16.21
2023-02-21T06:27:34.145Z,16.22
2023-02-21T06:30:00.506Z,16.19
2023-02-21T06:32:27.323Z,16.16
2023-02-21T06:34:53.956Z,16.19
2023-02-21T06:37:20.313Z,16.19
2023-02-21T06:39:46.636Z,16.19
2023-02-21T06:42:12.933Z,16.19
2023-02-21T06:44:39.336Z,16.19
2023-02-21T06:47:05.686Z,16.18
2023-02-21T06:49:32.141Z,16.13
2023-02-21T06:51:58.496Z,16.01
2023-02-21T06:54:24.909Z,15.92
2023-02-21T06:56:51.192Z,15.89
2023-02-21T06:59:17.630Z,15.90
2023-02-21T07:01:44.924Z,15.91
2023-02-21T07:04:11.408Z,15.85
2023-02-21T07:06:37.814Z,15.89
2023-02-21T07:09:04.314Z,15.92
2023-02-21T07:11:31.413Z,15.94
2023-02-21T07:13:57.986Z,15.98
2023-02-21T07:16:24.637Z,15.98
2023-02-21T07:18:50.962Z,16.00
2023-02-21T07:21:17.452Z,16.00
2023-02-21T07:23:44.104Z,16.01
2023-02-21T07:26:10.432Z,16.02
2023-02-21T07:28:37.150Z,16.03
2023-02-21T07:31:03.630Z,16.00
2023-02-21T07:33:30.162Z,16.02
2023-02-21T07:35:56.547Z,16.02
2023-02-21T07:38:23.747Z,16.03
2023-02-21T07:40:50.072Z,16.02
2023-02-21T07:43:17.101Z,16.02
2023-02-21T07:45:43.629Z,16.02
2023-02-21T07:48:10.031Z,16.02
2023-02-21T07:50:36.301Z,16.01
2023-02-21T07:53:02.727Z,16.01
2023-02-21T07:55:29.562Z,16.00
2023-02-21T07:57:56.226Z,16.03
2023-02-21T08:00:22.578Z,16.00
2023-02-21T08:02:49.121Z,16.01
2023-02-21T08:05:15.814Z,15.98
2023-02-21T08:07:42.609Z,15.98
2023-02-21T08:10:09.022Z,15.95
2023-02-21T08:12:35.340Z,15.89
2023-02-21T08:15:01.810Z,15.84
2023-02-21T08:17:28.454Z,15.85
2023-02-21T08:19:55.106Z,15.87
2023-02-21T08:22:21.475Z,15.86
2023-02-21T08:24:47.969Z,15.85
2023-02-21T08:27:14.314Z,15.83
2023-02-21T08:29:41.167Z,16.01
2023-02-21T08:32:07.747Z,15.85
2023-02-21T08:34:34.145Z,15.81
2023-02-21T08:37:00.465Z,15.89
2023-02-21T08:39:27.044Z,16.01
2023-02-21T08:41:53.436Z,16.00
2023-02-21T08:44:19.752Z,16.00
2023-02-21T08:46:47.782Z,15.93
2023-02-21T08:49:15.803Z,16.03
2023-02-21T08:51:42.685Z,15.92
2023-02-21T08:54:09.281Z,16.15
2023-02-21T08:56:35.971Z,16.11
2023-02-21T08:59:02.434Z,16.10
2023-02-21T09:01:28.842Z,16.04
2023-02-21T09:03:55.509Z,15.99
2023-02-21T09:06:21.892Z,15.96
2023-02-21T09:08:48.212Z,15.93
2023-02-21T09:11:15.046Z,15.93
2023-02-21T09:13:41.676Z,15.93
2023-02-21T09:16:08.313Z,15.91
2023-02-21T09:18:34.841Z,15.93
2023-02-21T09:21:01.135Z,15.90
2023-02-21T09:23:27.925Z,15.93
2023-02-21T09:25:54.369Z,15.91
2023-02-21T09:28:20.701Z,15.91
2023-02-21T09:30:47.055Z,15.90
2023-02-21T09:33:13.865Z,15.88
2023-02-21T09:35:41.085Z,15.87
2023-02-21T09:38:07.418Z,15.86
2023-02-21T09:40:33.792Z,15.85
2023-02-21T09:43:00.181Z,15.84
2023-02-21T09:45:26.602Z,15.82
2023-02-21T09:47:53.523Z,15.82
2023-02-21T09:50:20.143Z,15.82
2023-02-21T09:52:46.909Z,15.81
2023-02-21T09:55:13.225Z,15.80
2023-02-21T09:57:39.523Z,15.80
2023-02-21T10:00:05.839Z,15.81
2023-02-21T10:02:32.180Z,15.81
2023-02-21T10:04:58.917Z,15.80
2023-02-21T10:07:25.587Z,15.80
2023-02-21T10:09:51.954Z,15.81
2023-02-21T10:12:18.389Z,15.81
2023-02-21T10:14:45.456Z,15.82
2023-02-21T10:17:12.001Z,15.83
2023-02-21T10:19:38.272Z,15.82
2023-02-21T10:22:04.553Z,15.82
2023-02-21T10:24:30.989Z,15.82
2023-02-21T10:26:57.297Z,15.83
2023-02-21T10:29:24.010Z,15.84
2023-02-21T10:31:50.637Z,15.85
2023-02-21T10:34:17.258Z,15.84
2023-02-21T10:36:43.565Z,15.85
2023-02-21T10:39:09.906Z,15.85
2023-02-21T10:41:36.227Z,15.86
2023-02-21T10:44:02.574Z,15.86
2023-02-21T10:46:28.870Z,15.87
2023-02-21T10:48:55.699Z,15.87
2023-02-21T10:51:22.000Z,15.88
2023-02-21T10:53:48.400Z,15.88
2023-02-21T10:56:15.271Z,15.88
2023-02-21T10:58:42.150Z,15.87
2023-02-21T11:01:08.566Z,15.89
2023-02-21T11:03:34.871Z,15.89
2023-02-21T11:06:01.251Z,15.89
2023-02-21T11:08:27.578Z,15.89
2023-02-21T11:10:53.861Z,15.87
2023-02-21T11:13:20.312Z,15.89
2023-02-21T11:15:46.660Z,15.90
2023-02-21T11:18:12.966Z,15.90
2023-02-21T11:20:39.318Z,15.91
2023-02-21T11:23:06.016Z,15.90
2023-02-21T11:25:32.444Z,15.91
2023-02-21T11:27:58.755Z,15.90
2023-02-21T11:30:25.463Z,15.91
2023-02-21T11:32:51.931Z,15.89
2023-02-21T11:35:18.429Z,15.89
2023-02-21T11:37:45.463Z,15.90
2023-02-21T11:40:11.853Z,15.90
2023-02-21T11:42:38.140Z,15.90
2023-02-21T11:45:04.510Z,15.91
2023-02-21T11:47:30.928Z,15.91
2023-02-21T11:49:57.299Z,15.91
2023-02-21T11:52:23.690Z,15.93
2023-02-21T11:54:50.164Z,15.95
2023-02-21T11:57:16.502Z,15.95
2023-02-21T11:59:42.836Z,15.95
2023-02-21T12:02:09.153Z,15.94
2023-02-21T12:04:36.026Z,15.96
2023-02-21T12:07:02.531Z,15.98
2023-02-21T12:09:29.143Z,15.99
2023-02-21T12:11:55.506Z,15.98
2023-02-21T12:14:21.885Z,15.95
2023-02-21T12:16:48.433Z,15.98
2023-02-21T12:19:14.802Z,15.95
2023-02-21T12:21:41.170Z,15.94
2023-02-21T12:24:07.880Z,15.94
2023-02-21T12:26:34.736Z,15.94
2023-02-21T12:29:01.205Z,15.94
2023-02-21T12:31:27.731Z,15.95
2023-02-21T12:33:54.418Z,15.93
2023-02-21T12:36:20.788Z,15.94
2023-02-21T12:38:47.164Z,15.93
2023-02-21T12:41:13.740Z,15.94
2023-02-21T12:43:40.505Z,15.94
2023-02-21T12:46:07.185Z,15.92
2023-02-21T12:48:33.571Z,15.92
2023-02-21T12:50:59.992Z,15.91
2023-02-21T12:53:26.657Z,15.89
2023-02-21T12:55:52.987Z,15.90
2023-02-21T12:58:19.318Z,15.90
2023-02-21T13:00:45.690Z,15.91
2023-02-21T13:03:12.452Z,15.91
2023-02-21T13:05:38.757Z,15.92
2023-02-21T13:08:05.184Z,15.89
2023-02-21T13:10:31.617Z,15.85
2023-02-21T13:12:57.955Z,15.85
2023-02-21T13:15:24.862Z,15.82
2023-02-21T13:17:51.388Z,15.83
2023-02-21T13:20:18.244Z,15.84
2023-02-21T13:22:44.548Z,15.83
2023-02-21T13:25:11.050Z,15.82
2023-02-21T13:27:37.753Z,15.81
2023-02-21T13:30:04.231Z,15.80
2023-02-21T13:32:30.955Z,15.80
2023-02-21T13:34:57.290Z,15.79
2023-02-21T13:37:23.714Z,15.78
2023-02-21T13:39:51.599Z,15.78
2023-02-21T13:42:19.876Z,15.80
2023-02-21T13:44:46.450Z,15.84
2023-02-21T13:47:12.734Z,15.83
2023-02-21T13:49:39.081Z,15.90
2023-02-21T13:52:05.586Z,16.00
2023-02-21T13:54:31.958Z,16.21
2023-02-21T13:56:58.279Z,16.24
2023-02-21T13:59:25.675Z,16.33
2023-02-21T14:01:51.976Z,16.41
2023-02-21T14:04:18.309Z,16.49
2023-02-21T14:06:44.762Z,16.57
2023-02-21T14:09:11.088Z,16.65
2023-02-21T14:11:37.426Z,16.75
2023-02-21T14:14:04.067Z,16.83
2023-02-21T14:16:30.440Z,16.90
2023-02-21T14:18:56.826Z,16.97
2023-02-21T14:21:23.538Z,17.04
2023-02-21T14:23:50.052Z,17.09
2023-02-21T14:26:16.728Z,17.16
2023-02-21T14:28:43.153Z,17.22
2023-02-21T14:31:09.511Z,17.31
2023-02-21T14:33:36.144Z,17.34
2023-02-21T14:36:02.510Z,17.42
2023-02-21T14:38:29.382Z,17.49
2023-02-21T14:40:55.768Z,17.55
2023-02-21T14:43:22.116Z,17.61
2023-02-21T14:45:48.471Z,17.66
2023-02-21T14:48:14.955Z,17.71
2023-02-21T14:50:41.311Z,17.76
2023-02-21T14:53:07.777Z,17.81
2023-02-21T14:55:34.725Z,17.85
2023-02-21T14:58:01.270Z,17.91
2023-02-21T15:00:27.732Z,17.95
2023-02-21T15:02:54.042Z,18.00
2023-02-21T15:05:20.589Z,18.04
2023-02-21T15:07:47.068Z,18.09
2023-02-21T15:10:13.398Z,18.13
2023-02-21T15:12:39.774Z,18.15
2023-02-21T15:15:06.147Z,18.18
2023-02-21T15:17:32.418Z,18.20
2023-02-21T15:20:00.096Z,18.23
2023-02-21T15:22:26.439Z,18.25
2023-02-21T15:24:53.315Z,18.28
2023-02-21T15:27:19.720Z,18.30
2023-02-21T15:29:46.023Z,18.31
2023-02-21T15:32:12.499Z,18.34
2023-02-21T15:34:38.909Z,18.35
2023-02-21T15:37:05.488Z,18.35
2023-02-21T15:39:32.017Z,18.35
2023-02-21T15:41:58.465Z,18.36
2023-02-21T15:44:24.772Z,18.36
2023-02-21T15:46:51.569Z,18.36
2023-02-21T15:49:17.942Z,18.38
2023-02-21T15:51:44.286Z,18.40
2023-02-21T15:54:10.658Z,18.43
2023-02-21T15:56:37.057Z,18.48
2023-02-21T15:59:03.586Z,18.52
2023-02-21T16:01:30.292Z,18.55
2023-02-21T16:03:56.654Z,18.61
2023-02-21T16:06:23.688Z,18.67
2023-02-21T16:08:49.995Z,18.72
2023-02-21T16:11:17.032Z,18.76
2023-02-21T16:13:45.951Z,18.80
2023-02-21T16:16:12.994Z,18.86
2023-02-21T16:18:39.327Z,18.90
2023-02-21T16:21:06.398Z,18.95
2023-02-21T16:23:33.549Z,18.98
2023-02-21T16:25:59.932Z,19.03
2023-02-21T16:28:26.678Z,19.06
2023-02-21T16:30:53.247Z,19.08
2023-02-21T16:33:19.661Z,19.13
2023-02-21T16:35:46.556Z,19.15
2023-02-21T16:38:13.119Z,19.20
2023-02-21T16:40:39.571Z,19.23
2023-02-21T16:43:05.973Z,19.25
2023-02-21T16:45:32.795Z,19.28
2023-02-21T16:47:59.170Z,19.30
2023-02-21T16:50:25.864Z,19.32
2023-02-21T16:52:52.503Z,19.34
2023-02-21T16:55:19.286Z,19.36
2023-02-21T16:57:45.692Z,19.39
2023-02-21T17:00:12.059Z,19.42
2023-02-21T17:02:39.369Z,19.46
2023-02-21T17:05:06.405Z,19.48
2023-02-21T17:07:32.825Z,19.52
2023-02-21T17:09:59.629Z,19.56
2023-02-21T17:12:25.958Z,19.59
2023-02-21T17:14:52.350Z,19.62
2023-02-21T17:17:19.166Z,19.65
2023-02-21T17:19:45.560Z,19.65
2023-02-21T17:22:12.143Z,19.70
2023-02-21T17:24:38.536Z,19.72
2023-02-21T17:27:05.540Z,19.76
2023-02-21T17:29:32.005Z,19.81
2023-02-21T17:31:58.519Z,19.83
2023-02-21T17:34:25.474Z,19.87
2023-02-21T17:36:52.031Z,19.92
2023-02-21T17:39:18.783Z,19.96
2023-02-21T17:41:45.154Z,19.97
2023-02-21T17:44:12.143Z,19.97
2023-02-21T17:46:39.260Z,20.00
2023-02-21T17:49:05.798Z,20.01
2023-02-21T17:51:32.296Z,20.05
2023-02-21T17:53:58.591Z,20.10
2023-02-21T17:56:24.875Z,20.12
2023-02-21T17:58:51.229Z,20.14
2023-02-21T18:01:17.672Z,20.18
2023-02-21T18:03:44.150Z,20.17
2023-02-21T18:06:10.739Z,20.20
2023-02-21T18:08:37.066Z,20.23
2023-02-21T18:11:03.497Z,20.27
2023-02-21T18:13:29.947Z,20.29
2023-02-21T18:15:56.348Z,20.31
2023-02-21T18:18:22.662Z,20.34
2023-02-21T18:20:49.350Z,20.33
2023-02-21T18:23:17.023Z,20.36
2023-02-21T18:25:43.359Z,20.38
2023-02-21T18:28:09.914Z,20.41
2023-02-21T18:30:36.510Z,20.44
2023-02-21T18:33:02.882Z,20.47
2023-02-21T18:35:29.175Z,20.51
2023-02-21T18:37:55.810Z,20.53
2023-02-21T18:40:22.191Z,20.52
2023-02-21T18:42:48.690Z,20.53
2023-02-21T18:45:15.356Z,20.55
2023-02-21T18:47:41.715Z,20.55
2023-02-21T18:50:08.069Z,20.58
2023-02-21T18:52:34.431Z,20.59
2023-02-21T18:55:00.725Z,20.61
2023-02-21T18:57:27.123Z,20.63
2023-02-21T18:59:53.600Z,20.63
2023-02-21T19:02:19.963Z,20.63
2023-02-21T19:04:46.688Z,20.65
2023-02-21T19:07:13.411Z,20.65
2023-02-21T19:09:39.864Z,20.65
2023-02-21T19:12:06.287Z,20.65
2023-02-21T19:14:32.808Z,20.62
2023-02-21T19:16:59.117Z,20.64
2023-02-21T19:19:25.447Z,20.65
2023-02-21T19:21:52.062Z,20.64
2023-02-21T19:24:18.941Z,20.65
2023-02-21T19:26:45.474Z,20.64
2023-02-21T19:29:11.954Z,20.63
2023-02-21T19:31:39.270Z,20.62
2023-02-21T19:34:05.851Z,20.61
2023-02-21T19:36:32.210Z,20.62
2023-02-21T19:38:58.816Z,20.63
2023-02-21T19:41:25.148Z,20.63
2023-02-21T19:43:51.456Z,20.62
2023-02-21T19:46:17.820Z,20.62
2023-02-21T19:48:44.222Z,20.63
2023-02-21T19:51:10.911Z,20.63
2023-02-21T19:53:37.229Z,20.63
2023-02-21T19:56:04.227Z,20.65
2023-02-21T19:58:31.055Z,20.65
2023-02-21T20:00:57.858Z,20.67
2023-02-21T20:03:24.175Z,20.68
2023-02-21T20:05:50.491Z,20.68
2023-02-21T20:08:16.886Z,20.69
2023-02-21T20:10:43.538Z,20.69
2023-02-21T20:13:09.892Z,20.71
2023-02-21T20:15:36.881Z,20.71
2023-02-21T20:18:03.398Z,20.72
2023-02-21T20:20:29.825Z,20.73
2023-02-21T20:22:56.357Z,20.72
2023-02-21T20:25:22.748Z,20.72
2023-02-21T20:27:49.921Z,20.73
2023-02-21T20:30:17.100Z,20.72
2023-02-21T20:32:43.604Z,20.74
2023-02-21T20:35:09.926Z,20.75
2023-02-21T20:37:36.550Z,20.75
2023-02-21T20:40:03.039Z,20.74
2023-02-21T20:42:29.423Z,20.71
2023-02-21T20:44:56.009Z,20.73
2023-02-21T20:47:22.360Z,20.71
2023-02-21T20:49:48.629Z,20.73
2023-02-21T20:52:14.961Z,20.72
2023-02-21T20:54:41.564Z,20.72
2023-02-21T20:57:08.464Z,20.75
2023-02-21T20:59:35.033Z,20.72
2023-02-21T21:02:01.415Z,20.74
2023-02-21T21:04:28.216Z,20.73
2023-02-21T21:06:54.634Z,20.71
2023-02-21T21:09:20.950Z,20.73
2023-02-21T21:11:48.022Z,20.73
2023-02-21T21:14:16.126Z,20.72
2023-02-21T21:16:43.028Z,20.72
2023-02-21T21:19:09.309Z,20.73
2023-02-21T21:21:35.765Z,20.73
2023-02-21T21:24:02.117Z,20.71
2023-02-21T21:26:28.597Z,20.79
2023-02-21T21:28:54.970Z,20.75
2023-02-21T21:31:21.420Z,20.76
2023-02-21T21:33:47.890Z,20.79
2023-02-21T21:36:14.309Z,20.80
2023-02-21T21:38:40.685Z,20.81
2023-02-21T21:41:07.636Z,20.83
2023-02-21T21:43:34.005Z,20.82
2023-02-21T21:46:00.630Z,20.82
2023-02-21T21:48:27.040Z,20.81
2023-02-21T21:50:53.589Z,20.83
2023-02-21T21:53:20.052Z,20.84
2023-02-21T21:55:47.342Z,20.85
2023-02-21T21:58:13.852Z,20.83
2023-02-21T22:00:41.162Z,20.83
2023-02-21T22:03:08.191Z,20.82
2023-02-21T22:05:34.568Z,20.81
2023-02-21T22:08:00.966Z,20.79
2023-02-21T22:10:27.589Z,20.80
2023-02-21T22:12:54.285Z,20.79
2023-02-21T22:15:20.673Z,20.79
2023-02-21T22:17:47.042Z,20.77
2023-02-21T22:20:13.456Z,20.76
2023-02-21T22:22:40.198Z,20.77
2023-02-21T22:25:06.664Z,20.73
2023-02-21T22:27:33.662Z,20.71
2023-02-21T22:30:00.045Z,20.72
2023-02-21T22:32:26.534Z,20.69
2023-02-21T22:34:52.873Z,20.67
2023-02-21T22:37:19.642Z,20.65
2023-02-21T22:39:45.908Z,20.64
2023-02-21T22:42:12.871Z,20.62
2023-02-21T22:44:39.435Z,20.63
2023-02-21T22:47:06.328Z,20.61
2023-02-21T22:49:34.887Z,20.62
2023-02-21T22:52:01.293Z,20.60
2023-02-21T22:54:27.644Z,20.57
2023-02-21T22:56:54.112Z,20.54
2023-02-21T22:59:20.513Z,20.50
2023-02-21T23:01:47.618Z,20.48
2023-02-21T23:04:14.016Z,20.46
2023-02-21T23:06:40.774Z,20.42
2023-02-21T23:09:07.233Z,20.40
2023-02-21T23:11:34.045Z,20.40
2023-02-21T23:14:00.635Z,20.38
2023-02-21T23:16:27.216Z,20.37
2023-02-21T23:18:53.668Z,20.36
2023-02-21T23:21:20.400Z,20.35
2023-02-21T23:23:48.197Z,20.33
2023-02-21T23:26:21.065Z,20.32
2023-02-21T23:28:52.937Z,20.29
2023-02-21T23:31:19.559Z,20.28
2023-02-21T23:33:46.300Z,20.28
2023-02-21T23:36:12.954Z,20.26
2023-02-21T23:38:39.362Z,20.24
2023-02-21T23:41:05.838Z,20.23
2023-02-21T23:43:32.302Z,20.22
2023-02-21T23:45:59.040Z,20.21
2023-02-21T23:48:25.458Z,20.19
2023-02-21T23:50:51.824Z,20.19
2023-02-21T23:53:18.698Z,20.18
2023-02-21T23:55:45.077Z,20.15
2023-02-21T23:58:11.440Z,20.14
